createdAt,value
2018-08-18T00:00:37.072Z,0
2018-08-18T00:01:36.797Z,0
2018-08-18T00:02:36.793Z,0
2018-08-18T00:03:36.793Z,0
2018-08-18T00:04:36.865Z,0
2018-08-18T00:05:36.866Z,0
2018-08-18T00:06:36.767Z,0
2018-08-18T00:07:36.857Z,0
2018-08-18T00:08:36.861Z,0
2018-08-18T00:09:36.818Z,0
2018-08-18T00:10:36.816Z,0
2018-08-18T00:11:36.771Z,0
2018-08-18T00:12:36.771Z,0
2018-08-18T00:13:36.768Z,0
2018-08-18T00:14:36.818Z,0
2018-08-18T00:15:36.774Z,0
2018-08-18T00:16:36.872Z,0
2018-08-18T00:17:36.801Z,0
2018-08-18T00:18:36.872Z,0
2018-08-18T00:19:36.825Z,0
2018-08-18T00:20:36.884Z,0
2018-08-18T00:21:36.879Z,0
2018-08-18T00:22:36.813Z,0
2018-08-18T00:23:36.878Z,0
2018-08-18T00:24:36.804Z,0
2018-08-18T00:25:36.879Z,0
2018-08-18T00:26:36.837Z,0
2018-08-18T00:27:36.837Z,0
2018-08-18T00:28:36.829Z,0
2018-08-18T00:29:36.732Z,0
2018-08-18T00:30:36.841Z,0
2018-08-18T00:31:36.771Z,0
2018-08-18T00:32:36.827Z,0
2018-08-18T00:33:36.761Z,0
2018-08-18T00:34:36.808Z,0
2018-08-18T00:35:36.796Z,0
2018-08-18T00:36:36.849Z,0
2018-08-18T00:37:36.875Z,0
2018-08-18T00:38:36.812Z,0
2018-08-18T00:39:36.769Z,0
2018-08-18T00:40:37.081Z,0
2018-08-18T00:41:36.748Z,0
2018-08-18T00:42:36.855Z,0
2018-08-18T00:43:36.854Z,0
2018-08-18T00:44:36.790Z,0
2018-08-18T00:45:36.834Z,0
2018-08-18T00:46:36.893Z,0
2018-08-18T00:47:36.822Z,0
2018-08-18T00:48:36.829Z,0
2018-08-18T00:49:36.896Z,0
2018-08-18T00:50:36.897Z,0
2018-08-18T00:51:36.831Z,0
2018-08-18T00:52:36.897Z,0
2018-08-18T00:53:36.828Z,0
2018-08-18T00:54:36.897Z,0
2018-08-18T00:55:36.828Z,0
2018-08-18T00:56:36.801Z,0
2018-08-18T00:57:36.792Z,0
2018-08-18T00:58:36.881Z,0
2018-08-18T00:59:36.902Z,0
2018-08-18T01:00:36.867Z,0
2018-08-18T01:01:36.866Z,0
2018-08-18T01:02:36.892Z,0
2018-08-18T01:03:36.777Z,0
2018-08-18T01:04:36.873Z,0
2018-08-18T01:05:36.869Z,0
2018-08-18T01:06:36.905Z,0
2018-08-18T01:07:36.838Z,0
2018-08-18T01:08:36.910Z,0
2018-08-18T01:09:36.838Z,0
2018-08-18T01:10:36.939Z,0
2018-08-18T01:11:37.012Z,0
2018-08-18T01:12:36.997Z,0
2018-08-18T01:13:36.923Z,0
2018-08-18T01:14:36.840Z,0
2018-08-18T01:15:36.919Z,0
2018-08-18T01:16:36.861Z,0
2018-08-18T01:17:36.777Z,0
2018-08-18T01:18:36.816Z,0
2018-08-18T01:19:36.779Z,0
2018-08-18T01:20:36.902Z,0
2018-08-18T01:21:36.820Z,0
2018-08-18T01:22:36.782Z,0
2018-08-18T01:23:36.795Z,0
2018-08-18T01:24:36.820Z,0
2018-08-18T01:25:36.849Z,0
2018-08-18T01:26:36.848Z,0
2018-08-18T01:27:36.854Z,0
2018-08-18T01:28:36.784Z,0
2018-08-18T01:29:36.851Z,0
2018-08-18T01:30:36.911Z,0
2018-08-18T01:31:36.909Z,0
2018-08-18T01:32:36.828Z,0
2018-08-18T01:33:36.869Z,0
2018-08-18T01:34:36.821Z,0
2018-08-18T01:35:36.874Z,0
2018-08-18T01:36:36.859Z,0
2018-08-18T01:37:36.927Z,0
2018-08-18T01:38:36.860Z,0
2018-08-18T01:39:36.930Z,0
2018-08-18T01:40:36.928Z,0
2018-08-18T01:41:36.860Z,0
2018-08-18T01:42:36.936Z,0
2018-08-18T01:43:36.933Z,0
2018-08-18T01:44:36.867Z,0
2018-08-18T01:45:36.934Z,0
2018-08-18T01:46:36.864Z,0
2018-08-18T01:47:36.935Z,0
2018-08-18T01:48:36.890Z,0
2018-08-18T01:49:36.945Z,0
2018-08-18T01:50:36.872Z,0
2018-08-18T01:51:36.880Z,0
2018-08-18T01:52:36.938Z,0
2018-08-18T01:53:36.938Z,0
2018-08-18T01:54:36.884Z,0
2018-08-18T01:55:36.938Z,0
2018-08-18T01:56:36.870Z,0
2018-08-18T01:57:36.846Z,0
2018-08-18T01:58:36.824Z,0
2018-08-18T01:59:36.892Z,0
2018-08-18T02:00:36.912Z,0
2018-08-18T02:01:36.931Z,0
2018-08-18T02:02:36.849Z,0
2018-08-18T02:03:36.917Z,0
2018-08-18T02:04:36.911Z,0
2018-08-18T02:05:36.852Z,0
2018-08-18T02:06:36.948Z,0
2018-08-18T02:07:36.968Z,0
2018-08-18T02:08:36.886Z,0
2018-08-18T02:09:36.949Z,0
2018-08-18T02:10:36.953Z,0
2018-08-18T02:11:36.882Z,0
2018-08-18T02:12:36.953Z,0
2018-08-18T02:13:36.884Z,0
2018-08-18T02:14:36.953Z,0
2018-08-18T02:15:36.889Z,0
2018-08-18T02:16:36.960Z,0
2018-08-18T02:17:36.956Z,0
2018-08-18T02:18:36.886Z,0
2018-08-18T02:19:36.957Z,0
2018-08-18T02:20:36.957Z,0
2018-08-18T02:21:36.958Z,0
2018-08-18T02:22:36.886Z,0
2018-08-18T02:23:36.970Z,0
2018-08-18T02:24:36.920Z,0
2018-08-18T02:25:36.964Z,0
2018-08-18T02:26:36.962Z,0
2018-08-18T02:27:36.962Z,0
2018-08-18T02:28:36.965Z,0
2018-08-18T02:29:36.969Z,0
2018-08-18T02:30:36.901Z,0
2018-08-18T02:31:36.966Z,0
2018-08-18T02:32:36.942Z,0
2018-08-18T02:33:36.928Z,0
2018-08-18T02:34:36.899Z,0
2018-08-18T02:35:36.903Z,0
2018-08-18T02:36:36.971Z,0
2018-08-18T02:37:36.872Z,0
2018-08-18T02:38:36.852Z,0
2018-08-18T02:39:36.973Z,0
2018-08-18T02:40:36.875Z,0
2018-08-18T02:41:36.905Z,0
2018-08-18T02:42:36.856Z,0
2018-08-18T02:43:36.961Z,0
2018-08-18T02:44:36.905Z,0
2018-08-18T02:45:36.875Z,0
2018-08-18T02:46:36.838Z,0
2018-08-18T02:47:36.876Z,0
2018-08-18T02:48:36.880Z,0
2018-08-18T02:49:36.909Z,0
2018-08-18T02:50:36.879Z,0
2018-08-18T02:51:36.877Z,0
2018-08-18T02:52:36.945Z,0
2018-08-18T02:53:36.884Z,0
2018-08-18T02:54:36.981Z,0
2018-08-18T02:55:36.954Z,0
2018-08-18T02:56:36.848Z,0
2018-08-18T02:57:36.871Z,0
2018-08-18T02:58:36.874Z,0
2018-08-18T02:59:36.845Z,0
2018-08-18T03:00:36.871Z,0
2018-08-18T03:01:36.867Z,0
2018-08-18T03:02:36.872Z,0
2018-08-18T03:03:36.945Z,0
2018-08-18T03:04:36.945Z,0
2018-08-18T03:05:36.937Z,0
2018-08-18T03:06:36.947Z,0
2018-08-18T03:07:36.891Z,0
2018-08-18T03:08:36.978Z,0
2018-08-18T03:09:36.874Z,0
2018-08-18T03:10:36.964Z,0
2018-08-18T03:11:36.982Z,0
2018-08-18T03:12:36.945Z,0
2018-08-18T03:13:36.894Z,0
2018-08-18T03:14:36.896Z,0
2018-08-18T03:15:36.989Z,0
2018-08-18T03:16:36.947Z,0
2018-08-18T03:17:36.903Z,0
2018-08-18T03:18:36.992Z,0
2018-08-18T03:19:36.879Z,0
2018-08-18T03:20:36.998Z,0
2018-08-18T03:21:36.899Z,0
2018-08-18T03:22:36.966Z,0
2018-08-18T03:23:36.898Z,0
2018-08-18T03:24:36.953Z,0
2018-08-18T03:25:36.904Z,0
2018-08-18T03:26:36.886Z,0
2018-08-18T03:27:36.896Z,0
2018-08-18T03:28:36.957Z,0
2018-08-18T03:29:36.867Z,0
2018-08-18T03:30:36.914Z,0
2018-08-18T03:31:36.959Z,4
2018-08-18T03:32:36.930Z,4
2018-08-18T03:33:36.970Z,4
2018-08-18T03:34:36.878Z,0
2018-08-18T03:35:36.864Z,4
2018-08-18T03:36:36.895Z,4
2018-08-18T03:37:36.897Z,8
2018-08-18T03:38:36.933Z,8
2018-08-18T03:39:36.962Z,8
2018-08-18T03:40:36.975Z,12
2018-08-18T03:41:36.923Z,12
2018-08-18T03:42:36.868Z,12
2018-08-18T03:43:36.947Z,16
2018-08-18T03:44:36.946Z,20
2018-08-18T03:45:36.967Z,24
2018-08-18T03:46:36.883Z,24
2018-08-18T03:47:37.017Z,28
2018-08-18T03:48:37.018Z,36
2018-08-18T03:49:36.948Z,40
2018-08-18T03:50:37.023Z,44
2018-08-18T03:51:37.020Z,56
2018-08-18T03:52:37.023Z,64
2018-08-18T03:53:37.023Z,72
2018-08-18T03:54:37.024Z,84
2018-08-18T03:55:36.956Z,100
2018-08-18T03:56:36.959Z,116
2018-08-18T03:57:37.026Z,140
2018-08-18T03:58:36.958Z,156
2018-08-18T03:59:37.027Z,180
2018-08-18T04:00:37.032Z,208
2018-08-18T04:01:37.178Z,236
2018-08-18T04:02:37.030Z,268
2018-08-18T04:03:36.961Z,300
2018-08-18T04:04:37.034Z,336
2018-08-18T04:05:36.961Z,380
2018-08-18T04:06:36.958Z,428
2018-08-18T04:07:37.031Z,484
2018-08-18T04:08:36.965Z,540
2018-08-18T04:09:36.964Z,604
2018-08-18T04:10:36.967Z,668
2018-08-18T04:11:37.035Z,744
2018-08-18T04:12:37.034Z,816
2018-08-18T04:13:36.967Z,892
2018-08-18T04:14:37.042Z,976
2018-08-18T04:15:37.041Z,1052
2018-08-18T04:16:36.969Z,1136
2018-08-18T04:17:36.966Z,1220
2018-08-18T04:18:37.064Z,1296
2018-08-18T04:19:37.042Z,1384
2018-08-18T04:20:36.975Z,1468
2018-08-18T04:21:37.042Z,1552
2018-08-18T04:22:36.971Z,1648
2018-08-18T04:23:37.050Z,1732
2018-08-18T04:24:36.991Z,1848
2018-08-18T04:25:37.047Z,1960
2018-08-18T04:26:37.049Z,2076
2018-08-18T04:27:36.987Z,2176
2018-08-18T04:28:37.050Z,2280
2018-08-18T04:29:37.049Z,2376
2018-08-18T04:30:36.977Z,2468
2018-08-18T04:31:37.049Z,2560
2018-08-18T04:32:36.976Z,2664
2018-08-18T04:33:37.053Z,2748
2018-08-18T04:34:36.971Z,2832
2018-08-18T04:35:37.052Z,2896
2018-08-18T04:36:36.979Z,2924
2018-08-18T04:37:36.978Z,2996
2018-08-18T04:38:36.980Z,3084
2018-08-18T04:39:37.055Z,3180
2018-08-18T04:40:36.982Z,3276
2018-08-18T04:41:37.065Z,3384
2018-08-18T04:42:37.214Z,3540
2018-08-18T04:43:36.989Z,3688
2018-08-18T04:44:36.998Z,3900
2018-08-18T04:45:37.057Z,4096
2018-08-18T04:46:37.059Z,4256
2018-08-18T04:47:37.019Z,4428
2018-08-18T04:48:37.018Z,4564
2018-08-18T04:49:37.007Z,4696
2018-08-18T04:50:37.087Z,4924
2018-08-18T04:51:36.962Z,5088
2018-08-18T04:52:37.062Z,5312
2018-08-18T04:53:37.023Z,5484
2018-08-18T04:54:36.964Z,5608
2018-08-18T04:55:37.005Z,5980
2018-08-18T04:56:37.009Z,5956
2018-08-18T04:57:37.026Z,6036
2018-08-18T04:58:36.962Z,5996
2018-08-18T04:59:36.950Z,5888
2018-08-18T05:00:37.015Z,5888
2018-08-18T05:01:37.029Z,5768
2018-08-18T05:02:37.055Z,5780
2018-08-18T05:03:37.037Z,5916
2018-08-18T05:04:37.033Z,5924
2018-08-18T05:05:37.058Z,6044
2018-08-18T05:06:37.041Z,6108
2018-08-18T05:07:36.974Z,6256
2018-08-18T05:08:36.929Z,6340
2018-08-18T05:09:36.951Z,6724
2018-08-18T05:10:36.957Z,6612
2018-08-18T05:11:37.097Z,6688
2018-08-18T05:12:37.040Z,6816
2018-08-18T05:13:37.004Z,6828
2018-08-18T05:14:37.037Z,6928
2018-08-18T05:15:36.980Z,6976
2018-08-18T05:16:37.026Z,6976
2018-08-18T05:17:37.018Z,7072
2018-08-18T05:18:36.908Z,7280
2018-08-18T05:19:36.971Z,7452
2018-08-18T05:20:37.025Z,7648
2018-08-18T05:21:37.020Z,7940
2018-08-18T05:22:37.021Z,8292
2018-08-18T05:23:37.033Z,8776
2018-08-18T05:24:36.935Z,9116
2018-08-18T05:25:36.949Z,9400
2018-08-18T05:26:36.976Z,9872
2018-08-18T05:27:37.019Z,10432
2018-08-18T05:28:37.100Z,10820
2018-08-18T05:29:37.015Z,11000
2018-08-18T05:30:37.091Z,10976
2018-08-18T05:31:36.964Z,10808
2018-08-18T05:32:37.015Z,10292
2018-08-18T05:33:37.095Z,10280
2018-08-18T05:34:37.152Z,10720
2018-08-18T05:35:37.094Z,10948
2018-08-18T05:36:37.231Z,11020
2018-08-18T05:37:37.028Z,11284
2018-08-18T05:38:37.022Z,11420
2018-08-18T05:39:37.022Z,11780
2018-08-18T05:40:37.027Z,11948
2018-08-18T05:41:37.095Z,11980
2018-08-18T05:42:37.284Z,12348
2018-08-18T05:43:37.027Z,12948
2018-08-18T05:44:37.097Z,13732
2018-08-18T05:45:37.028Z,14852
2018-08-18T05:46:37.099Z,15744
2018-08-18T05:47:37.059Z,17896
2018-08-18T05:48:37.102Z,19492
2018-08-18T05:49:37.101Z,20452
2018-08-18T05:50:37.033Z,21148
2018-08-18T05:51:37.033Z,23904
2018-08-18T05:52:37.107Z,29248
2018-08-18T05:53:37.037Z,28352
2018-08-18T05:54:37.109Z,22912
2018-08-18T05:55:37.034Z,22368
2018-08-18T05:56:37.033Z,23072
2018-08-18T05:57:37.059Z,24192
2018-08-18T05:58:36.967Z,26336
2018-08-18T05:59:37.019Z,24896
2018-08-18T06:00:37.059Z,25440
2018-08-18T06:01:36.997Z,22304
2018-08-18T06:02:37.068Z,23488
2018-08-18T06:03:37.038Z,24160
2018-08-18T06:04:37.075Z,28224
2018-08-18T06:05:37.086Z,28224
2018-08-18T06:06:36.995Z,28480
2018-08-18T06:07:36.995Z,31808
2018-08-18T06:08:37.027Z,31168
2018-08-18T06:09:37.120Z,30144
2018-08-18T06:10:36.982Z,23200
2018-08-18T06:11:36.979Z,25472
2018-08-18T06:12:36.978Z,25920
2018-08-18T06:13:37.071Z,22052
2018-08-18T06:14:37.108Z,25824
2018-08-18T06:15:37.082Z,30688
2018-08-18T06:16:37.091Z,26304
2018-08-18T06:17:37.148Z,23392
2018-08-18T06:18:37.046Z,28704
2018-08-18T06:19:37.053Z,28704
2018-08-18T06:20:37.122Z,29792
2018-08-18T06:21:37.130Z,25856
2018-08-18T06:22:37.054Z,26944
2018-08-18T06:23:37.126Z,27296
2018-08-18T06:24:37.020Z,33920
2018-08-18T06:25:37.056Z,38176
2018-08-18T06:26:37.128Z,40160
2018-08-18T06:27:37.060Z,43712
2018-08-18T06:28:37.129Z,44640
2018-08-18T06:29:37.058Z,45280
2018-08-18T06:30:37.133Z,33664
2018-08-18T06:31:37.056Z,43296
2018-08-18T06:32:37.133Z,51072
2018-08-18T06:33:37.132Z,53184
2018-08-18T06:34:37.224Z,58688
2018-08-18T06:35:37.063Z,60704
2018-08-18T06:36:37.133Z,61920
2018-08-18T06:37:37.068Z,63328
2018-08-18T06:38:37.018Z,60224
2018-08-18T06:39:37.113Z,58720
2018-08-18T06:40:37.069Z,57632
2018-08-18T06:41:37.199Z,58272
2018-08-18T06:42:37.165Z,57856
2018-08-18T06:43:37.141Z,55808
2018-08-18T06:44:37.072Z,56736
2018-08-18T06:45:37.141Z,59616
2018-08-18T06:46:37.139Z,60224
2018-08-18T06:47:37.021Z,58624
2018-08-18T06:48:37.100Z,57696
2018-08-18T06:49:37.113Z,57344
2018-08-18T06:50:37.007Z,56416
2018-08-18T06:51:37.103Z,56032
2018-08-18T06:52:37.002Z,52640
2018-08-18T06:53:37.004Z,50912
2018-08-18T06:54:37.137Z,52672
2018-08-18T06:55:37.074Z,54176
2018-08-18T06:56:37.132Z,55168
2018-08-18T06:57:37.080Z,58464
2018-08-18T06:58:37.152Z,61632
2018-08-18T06:59:37.116Z,64320
2018-08-18T07:00:37.152Z,67680
2018-08-18T07:01:37.077Z,67168
2018-08-18T07:02:37.155Z,66176
2018-08-18T07:03:37.088Z,63840
2018-08-18T07:04:37.165Z,59264
2018-08-18T07:05:37.081Z,58432
2018-08-18T07:06:37.167Z,56928
2018-08-18T07:07:37.164Z,59488
2018-08-18T07:08:37.083Z,61664
2018-08-18T07:09:37.159Z,65280
2018-08-18T07:10:37.086Z,61376
2018-08-18T07:11:37.191Z,62336
2018-08-18T07:12:37.090Z,70784
2018-08-18T07:13:37.161Z,74976
2018-08-18T07:14:37.162Z,72544
2018-08-18T07:15:37.116Z,74144
2018-08-18T07:16:37.164Z,75104
2018-08-18T07:17:37.089Z,75520
2018-08-18T07:18:37.164Z,76096
2018-08-18T07:19:37.166Z,74880
2018-08-18T07:20:37.095Z,75936
2018-08-18T07:21:37.168Z,77216
2018-08-18T07:22:37.099Z,79104
2018-08-18T07:23:37.168Z,80352
2018-08-18T07:24:37.097Z,82080
2018-08-18T07:25:37.100Z,81664
2018-08-18T07:26:37.175Z,80000
2018-08-18T07:27:37.101Z,79520
2018-08-18T07:28:37.325Z,79584
2018-08-18T07:29:37.172Z,80000
2018-08-18T07:30:37.101Z,80256
2018-08-18T07:31:37.095Z,80704
2018-08-18T07:32:37.174Z,80064
2018-08-18T07:33:37.175Z,80320
2018-08-18T07:34:37.107Z,82048
2018-08-18T07:35:37.175Z,83680
2018-08-18T07:36:37.177Z,84224
2018-08-18T07:37:37.239Z,85280
2018-08-18T07:38:37.121Z,85888
2018-08-18T07:39:37.104Z,85600
2018-08-18T07:40:37.146Z,84704
2018-08-18T07:41:37.169Z,84032
2018-08-18T07:42:37.125Z,82656
2018-08-18T07:43:37.167Z,80832
2018-08-18T07:44:37.144Z,79936
2018-08-18T07:45:37.180Z,80608
2018-08-18T07:46:37.083Z,82752
2018-08-18T07:47:37.141Z,85984
2018-08-18T07:48:37.051Z,88672
2018-08-18T07:49:37.149Z,90880
2018-08-18T07:50:37.068Z,90912
2018-08-18T07:51:37.055Z,89344
2018-08-18T07:52:37.111Z,87520
2018-08-18T07:53:37.127Z,86240
2018-08-18T07:54:37.051Z,85216
2018-08-18T07:55:37.151Z,83232
2018-08-18T07:56:37.143Z,83360
2018-08-18T07:57:37.193Z,85952
2018-08-18T07:58:37.126Z,89920
2018-08-18T07:59:37.216Z,92672
2018-08-18T08:00:37.127Z,94688
2018-08-18T08:01:37.196Z,95872
2018-08-18T08:02:37.122Z,95488
2018-08-18T08:03:37.195Z,94880
2018-08-18T08:04:37.126Z,94528
2018-08-18T08:05:37.262Z,93760
2018-08-18T08:06:37.199Z,95776
2018-08-18T08:07:37.084Z,96800
2018-08-18T08:08:37.182Z,97568
2018-08-18T08:09:37.147Z,98752
2018-08-18T08:10:37.090Z,99872
2018-08-18T08:11:37.056Z,100000
2018-08-18T08:12:37.284Z,100800
2018-08-18T08:13:37.085Z,100448
2018-08-18T08:14:37.103Z,99616
2018-08-18T08:15:37.063Z,98272
2018-08-18T08:16:37.089Z,99136
2018-08-18T08:17:37.150Z,102656
2018-08-18T08:18:37.116Z,105824
2018-08-18T08:19:37.157Z,107552
2018-08-18T08:20:37.158Z,108448
2018-08-18T08:21:37.155Z,110368
2018-08-18T08:22:37.168Z,110624
2018-08-18T08:23:37.068Z,109632
2018-08-18T08:24:37.103Z,109920
2018-08-18T08:25:37.093Z,110656
2018-08-18T08:26:37.062Z,110400
2018-08-18T08:27:37.151Z,112000
2018-08-18T08:28:37.197Z,116032
2018-08-18T08:29:37.182Z,119552
2018-08-18T08:30:37.156Z,121888
2018-08-18T08:31:37.201Z,121856
2018-08-18T08:32:37.155Z,120032
2018-08-18T08:33:37.097Z,115616
2018-08-18T08:34:37.157Z,113504
2018-08-18T08:35:37.151Z,112064
2018-08-18T08:36:37.146Z,112768
2018-08-18T08:37:37.181Z,112224
2018-08-18T08:38:37.219Z,114496
2018-08-18T08:39:37.150Z,116064
2018-08-18T08:40:37.222Z,117408
2018-08-18T08:41:37.147Z,121152
2018-08-18T08:42:37.222Z,119360
2018-08-18T08:43:37.146Z,113376
2018-08-18T08:44:37.226Z,110464
2018-08-18T08:45:37.225Z,109088
2018-08-18T08:46:37.221Z,110016
2018-08-18T08:47:37.181Z,113120
2018-08-18T08:48:37.225Z,117472
2018-08-18T08:49:37.154Z,119520
2018-08-18T08:50:37.230Z,123904
2018-08-18T08:51:37.233Z,125824
2018-08-18T08:52:37.157Z,124992
2018-08-18T08:53:37.231Z,125728
2018-08-18T08:54:37.231Z,124384
2018-08-18T08:55:37.157Z,116160
2018-08-18T08:56:37.234Z,112896
2018-08-18T08:57:37.103Z,113024
2018-08-18T08:58:37.245Z,112096
2018-08-18T08:59:37.125Z,41600
2018-08-18T09:00:37.179Z,45472
2018-08-18T09:01:37.125Z,120672
2018-08-18T09:02:37.180Z,126752
2018-08-18T09:03:37.091Z,129856
2018-08-18T09:04:37.184Z,129120
2018-08-18T09:05:37.131Z,72544
2018-08-18T09:06:37.135Z,43744
2018-08-18T09:07:37.076Z,130464
2018-08-18T09:08:37.126Z,55392
2018-08-18T09:09:37.100Z,52288
2018-08-18T09:10:37.141Z,100448
2018-08-18T09:11:37.196Z,131456
2018-08-18T09:12:37.185Z,132128
2018-08-18T09:13:37.210Z,128064
2018-08-18T09:14:37.197Z,125600
2018-08-18T09:15:37.128Z,129248
2018-08-18T09:16:37.198Z,131712
2018-08-18T09:17:37.127Z,136416
2018-08-18T09:18:37.211Z,137792
2018-08-18T09:19:37.216Z,138400
2018-08-18T09:20:37.216Z,137536
2018-08-18T09:21:37.237Z,137408
2018-08-18T09:22:37.148Z,136192
2018-08-18T09:23:37.241Z,132224
2018-08-18T09:24:37.124Z,130400
2018-08-18T09:25:37.221Z,131488
2018-08-18T09:26:37.196Z,129728
2018-08-18T09:27:37.151Z,129600
2018-08-18T09:28:37.154Z,133312
2018-08-18T09:29:37.137Z,136384
2018-08-18T09:30:37.158Z,141504
2018-08-18T09:31:37.137Z,137472
2018-08-18T09:32:37.127Z,47424
2018-08-18T09:33:37.231Z,149760
2018-08-18T09:34:37.228Z,152704
2018-08-18T09:35:37.159Z,148768
2018-08-18T09:36:37.246Z,138656
2018-08-18T09:37:37.232Z,133440
2018-08-18T09:38:37.187Z,134912
2018-08-18T09:39:37.264Z,50496
2018-08-18T09:40:37.189Z,89440
2018-08-18T09:41:37.264Z,130816
2018-08-18T09:42:37.197Z,59520
2018-08-18T09:43:37.265Z,47424
2018-08-18T09:44:37.220Z,97088
2018-08-18T09:45:37.292Z,128032
2018-08-18T09:46:37.222Z,123680
2018-08-18T09:47:37.269Z,141216
2018-08-18T09:48:37.286Z,142368
2018-08-18T09:49:37.273Z,142144
2018-08-18T09:50:37.199Z,141984
2018-08-18T09:51:37.195Z,139040
2018-08-18T09:52:37.206Z,136000
2018-08-18T09:53:37.272Z,133696
2018-08-18T09:54:37.203Z,134880
2018-08-18T09:55:37.277Z,137984
2018-08-18T09:56:37.274Z,140800
2018-08-18T09:57:37.275Z,142496
2018-08-18T09:58:37.214Z,124960
2018-08-18T09:59:37.206Z,115936
2018-08-18T10:00:37.159Z,61120
2018-08-18T10:01:37.249Z,144192
2018-08-18T10:02:37.304Z,79584
2018-08-18T10:03:37.280Z,147488
2018-08-18T10:04:37.209Z,130560
2018-08-18T10:05:37.279Z,147840
2018-08-18T10:06:37.251Z,124544
2018-08-18T10:07:37.283Z,97536
2018-08-18T10:08:37.211Z,57856
2018-08-18T10:09:37.282Z,139712
2018-08-18T10:10:37.211Z,132192
2018-08-18T10:11:37.281Z,66560
2018-08-18T10:12:37.218Z,105120
2018-08-18T10:13:37.289Z,150368
2018-08-18T10:14:37.214Z,141536
2018-08-18T10:15:37.216Z,146432
2018-08-18T10:16:37.211Z,142208
2018-08-18T10:17:37.290Z,140896
2018-08-18T10:18:37.181Z,138368
2018-08-18T10:19:37.238Z,138400
2018-08-18T10:20:37.218Z,132704
2018-08-18T10:21:37.231Z,133952
2018-08-18T10:22:37.183Z,56448
2018-08-18T10:23:37.182Z,128800
2018-08-18T10:24:37.177Z,116512
2018-08-18T10:25:37.235Z,136096
2018-08-18T10:26:37.145Z,122528
2018-08-18T10:27:37.187Z,114176
2018-08-18T10:28:37.224Z,116192
2018-08-18T10:29:37.255Z,111392
2018-08-18T10:30:37.257Z,126048
2018-08-18T10:31:37.225Z,136000
2018-08-18T10:32:37.240Z,134496
2018-08-18T10:33:37.226Z,134144
2018-08-18T10:34:37.264Z,133952
2018-08-18T10:35:37.225Z,134368
2018-08-18T10:36:37.204Z,133728
2018-08-18T10:37:37.186Z,132640
2018-08-18T10:38:37.302Z,133408
2018-08-18T10:39:37.234Z,131136
2018-08-18T10:40:37.305Z,133024
2018-08-18T10:41:37.234Z,136832
2018-08-18T10:42:37.305Z,140960
2018-08-18T10:43:37.241Z,143424
2018-08-18T10:44:37.311Z,144864
2018-08-18T10:45:37.308Z,145824
2018-08-18T10:46:37.233Z,144736
2018-08-18T10:47:37.311Z,143392
2018-08-18T10:48:37.139Z,139424
2018-08-18T10:49:37.260Z,127744
2018-08-18T10:50:37.164Z,132832
2018-08-18T10:51:37.409Z,133088
2018-08-18T10:52:37.143Z,135744
2018-08-18T10:53:37.143Z,141248
2018-08-18T10:54:37.467Z,148704
2018-08-18T10:55:37.200Z,151200
2018-08-18T10:56:37.202Z,152800
2018-08-18T10:57:37.207Z,148256
2018-08-18T10:58:37.388Z,142144
2018-08-18T10:59:37.248Z,135872
2018-08-18T11:00:37.252Z,136480
2018-08-18T11:01:37.271Z,135904
2018-08-18T11:02:37.352Z,139616
2018-08-18T11:03:37.249Z,141248
2018-08-18T11:04:37.322Z,143072
2018-08-18T11:05:37.249Z,143232
2018-08-18T11:06:37.325Z,141664
2018-08-18T11:07:37.250Z,136928
2018-08-18T11:08:37.322Z,126368
2018-08-18T11:09:37.257Z,126592
2018-08-18T11:10:37.325Z,124192
2018-08-18T11:11:37.258Z,122944
2018-08-18T11:12:37.336Z,124320
2018-08-18T11:13:37.256Z,127712
2018-08-18T11:14:37.328Z,132736
2018-08-18T11:15:37.265Z,139232
2018-08-18T11:16:37.263Z,141856
2018-08-18T11:17:37.334Z,140800
2018-08-18T11:18:37.274Z,141152
2018-08-18T11:19:37.257Z,138912
2018-08-18T11:20:37.204Z,140480
2018-08-18T11:21:37.290Z,141600
2018-08-18T11:22:37.297Z,142912
2018-08-18T11:23:37.292Z,143808
2018-08-18T11:24:37.197Z,146528
2018-08-18T11:25:37.369Z,147040
2018-08-18T11:26:37.276Z,143040
2018-08-18T11:27:37.299Z,139104
2018-08-18T11:28:37.304Z,137184
2018-08-18T11:29:37.291Z,134368
2018-08-18T11:30:37.252Z,134528
2018-08-18T11:31:37.214Z,134208
2018-08-18T11:32:37.251Z,134208
2018-08-18T11:33:37.267Z,137504
2018-08-18T11:34:37.341Z,139680
2018-08-18T11:35:37.341Z,137856
2018-08-18T11:36:37.269Z,131552
2018-08-18T11:37:37.343Z,129440
2018-08-18T11:38:37.181Z,130144
2018-08-18T11:39:37.182Z,133120
2018-08-18T11:40:37.268Z,132864
2018-08-18T11:41:37.294Z,137536
2018-08-18T11:42:37.199Z,140128
2018-08-18T11:43:37.296Z,139616
2018-08-18T11:44:37.310Z,135520
2018-08-18T11:45:37.277Z,132736
2018-08-18T11:46:37.275Z,132160
2018-08-18T11:47:37.236Z,132672
2018-08-18T11:48:37.293Z,133056
2018-08-18T11:49:37.308Z,128960
2018-08-18T11:50:37.241Z,129120
2018-08-18T11:51:37.237Z,130272
2018-08-18T11:52:37.320Z,132544
2018-08-18T11:53:37.310Z,136288
2018-08-18T11:54:37.225Z,141664
2018-08-18T11:55:37.260Z,139680
2018-08-18T11:56:37.316Z,131808
2018-08-18T11:57:37.241Z,138944
2018-08-18T11:58:37.289Z,140992
2018-08-18T11:59:37.360Z,138336
2018-08-18T12:00:37.287Z,134688
2018-08-18T12:01:37.363Z,134496
2018-08-18T12:02:37.289Z,132352
2018-08-18T12:03:37.364Z,139168
2018-08-18T12:04:37.291Z,140064
2018-08-18T12:05:37.290Z,141152
2018-08-18T12:06:37.370Z,141056
2018-08-18T12:07:37.292Z,141728
2018-08-18T12:08:37.367Z,143712
2018-08-18T12:09:37.298Z,143008
2018-08-18T12:10:37.388Z,141120
2018-08-18T12:11:37.365Z,139424
2018-08-18T12:12:37.302Z,138432
2018-08-18T12:13:37.388Z,138560
2018-08-18T12:14:37.300Z,141888
2018-08-18T12:15:37.299Z,143040
2018-08-18T12:16:37.375Z,142240
2018-08-18T12:17:37.302Z,142720
2018-08-18T12:18:37.312Z,142784
2018-08-18T12:19:37.284Z,141024
2018-08-18T12:20:37.274Z,137856
2018-08-18T12:21:37.271Z,134240
2018-08-18T12:22:37.251Z,133152
2018-08-18T12:23:37.315Z,131552
2018-08-18T12:24:37.361Z,136768
2018-08-18T12:25:37.320Z,143744
2018-08-18T12:26:37.249Z,148928
2018-08-18T12:27:37.340Z,149696
2018-08-18T12:28:37.331Z,146080
2018-08-18T12:29:37.340Z,142592
2018-08-18T12:30:37.276Z,138592
2018-08-18T12:31:37.318Z,135904
2018-08-18T12:32:37.319Z,138336
2018-08-18T12:33:37.333Z,140384
2018-08-18T12:34:37.213Z,143808
2018-08-18T12:35:37.214Z,145536
2018-08-18T12:36:37.369Z,145056
2018-08-18T12:37:37.373Z,142880
2018-08-18T12:38:37.313Z,139328
2018-08-18T12:39:37.367Z,136768
2018-08-18T12:40:37.268Z,133664
2018-08-18T12:41:37.262Z,136000
2018-08-18T12:42:37.316Z,136416
2018-08-18T12:43:37.341Z,137952
2018-08-18T12:44:37.267Z,137888
2018-08-18T12:45:37.217Z,133952
2018-08-18T12:46:37.211Z,128608
2018-08-18T12:47:37.393Z,127584
2018-08-18T12:48:37.250Z,131008
2018-08-18T12:49:37.303Z,133184
2018-08-18T12:50:37.284Z,134752
2018-08-18T12:51:37.230Z,135296
2018-08-18T12:52:37.331Z,134688
2018-08-18T12:53:37.336Z,128544
2018-08-18T12:54:37.296Z,123104
2018-08-18T12:55:37.248Z,121376
2018-08-18T12:56:37.229Z,122720
2018-08-18T12:57:37.355Z,125920
2018-08-18T12:58:37.488Z,132224
2018-08-18T12:59:37.385Z,136256
2018-08-18T13:00:37.307Z,135776
2018-08-18T13:01:37.305Z,131008
2018-08-18T13:02:37.307Z,127040
2018-08-18T13:03:37.365Z,124448
2018-08-18T13:04:37.302Z,123808
2018-08-18T13:05:37.374Z,125664
2018-08-18T13:06:37.365Z,128064
2018-08-18T13:07:37.353Z,131840
2018-08-18T13:08:37.339Z,131328
2018-08-18T13:09:37.410Z,128256
2018-08-18T13:10:37.333Z,122304
2018-08-18T13:11:37.428Z,119232
2018-08-18T13:12:37.407Z,118688
2018-08-18T13:13:37.411Z,121536
2018-08-18T13:14:37.335Z,126400
2018-08-18T13:15:37.341Z,130976
2018-08-18T13:16:37.409Z,130208